Time;durP1;ratioP1;P1;durP2;ratioP2;P2;SDS_P1;SDS_P2;PMS_P1;PMS_P2;Temp;Humidity;BMP_temperature;BMP_pressure;BME280_temperature;BME280_humidity;BME280_pressure;Samples;Min_cycle;Max_cycle;Signal;HPM_P1;HPM_P2
2022/03/31 00:00:41;;;;;;;2.85;0.80;;;4.40;99.90;;;;;;5018317;28;20124;-73
2022/03/31 00:03:11;;;;;;;3.30;1.00;;;4.40;99.90;;;;;;5018024;28;20593;-73
2022/03/31 00:05:38;;;;;;;2.97;1.05;;;4.40;99.90;;;;;;5017945;28;20132;-73
2022/03/31 00:08:06;;;;;;;4.63;0.90;;;4.40;99.90;;;;;;5017873;28;20044;-73
2022/03/31 00:10:52;;;;;;;4.05;1.15;;;4.50;99.90;;;;;;5002297;28;20041;-73
2022/03/31 00:13:23;;;;;;;5.47;1.30;;;4.50;99.90;;;;;;5017803;28;20548;-73
2022/03/31 00:15:49;;;;;;;6.63;0.90;;;4.50;99.90;;;;;;5001981;28;20041;-73
2022/03/31 00:18:17;;;;;;;4.90;1.20;;;4.50;99.90;;;;;;5001370;28;20045;-73
2022/03/31 00:34:11;;;;;;;6.50;1.30;;;4.50;99.90;;;;;;5017412;28;20489;-73
2022/03/31 00:36:36;;;;;;;3.97;1.00;;;4.50;99.90;;;;;;5001107;28;20037;-73
2022/03/31 00:41:47;;;;;;;4.68;1.10;;;4.50;99.90;;;;;;5017693;28;20115;-73
2022/03/31 00:44:12;;;;;;;4.55;0.88;;;4.50;99.90;;;;;;5017282;28;20493;-73
2022/03/31 00:46:47;;;;;;;7.47;1.30;;;4.50;99.90;;;;;;5017665;28;20048;-73
2022/03/31 00:49:13;;;;;;;4.28;1.00;;;4.50;99.90;;;;;;5017342;28;20056;-73
2022/03/31 00:51:39;;;;;;;5.50;1.00;;;4.50;99.90;;;;;;5001163;28;20087;-73
2022/03/31 00:54:04;;;;;;;4.18;1.30;;;4.50;99.90;;;;;;5017485;28;20493;-73
2022/03/31 00:56:32;;;;;;;6.70;0.90;;;4.50;99.90;;;;;;5001523;28;20033;-73
2022/03/31 00:58:57;;;;;;;4.38;0.90;;;4.50;99.90;;;;;;5016989;28;20044;-73
2022/03/31 01:01:23;;;;;;;4.35;0.95;;;4.50;99.90;;;;;;5016963;28;20124;-73
2022/03/31 01:03:49;;;;;;;5.72;1.15;;;4.50;99.90;;;;;;5016905;28;20127;-73
2022/03/31 01:06:15;;;;;;;4.13;0.80;;;4.50;99.90;;;;;;5000624;28;20096;-73
2022/03/31 01:08:42;;;;;;;3.25;1.00;;;4.50;99.90;;;;;;5016789;28;20048;-73
2022/03/31 01:11:07;;;;;;;4.63;1.10;;;4.50;99.90;;;;;;5016848;28;20037;-73
2022/03/31 01:13:33;;;;;;;7.25;1.00;;;4.50;99.90;;;;;;5000489;28;20033;-73
2022/03/31 01:15:59;;;;;;;5.88;1.27;;;4.50;99.90;;;;;;5016804;28;20045;-73
2022/03/31 01:18:25;;;;;;;3.47;0.70;;;4.50;99.90;;;;;;5016764;28;20033;-73
2022/03/31 01:20:51;;;;;;;4.18;1.08;;;4.50;99.90;;;;;;5016655;28;20044;-73
2022/03/31 01:23:17;;;;;;;6.97;2.03;;;4.50;99.90;;;;;;5016391;28;20128;-73
2022/03/31 01:25:44;;;;;;;3.88;0.82;;;4.50;99.90;;;;;;5016632;28;20053;-74
2022/03/31 01:28:10;;;;;;;3.85;0.80;;;4.50;99.90;;;;;;5016430;28;20045;-74
2022/03/31 01:30:35;;;;;;;6.50;1.13;;;4.50;99.90;;;;;;5016563;28;20072;-74
2022/03/31 01:33:02;;;;;;;4.15;1.00;;;4.50;99.90;;;;;;5016390;28;20076;-74
2022/03/31 01:35:27;;;;;;;4.57;0.80;;;4.60;99.90;;;;;;5016617;28;20481;-73
2022/03/31 01:37:53;;;;;;;2.65;0.80;;;4.50;99.90;;;;;;5016576;28;20067;-73
2022/03/31 01:40:19;;;;;;;3.60;1.20;;;4.50;99.90;;;;;;5016427;28;20395;-73
2022/03/31 01:42:46;;;;;;;1.83;0.77;;;4.60;99.90;;;;;;5016504;28;20041;-73
2022/03/31 01:45:19;;;;;;;2.58;1.10;;;4.60;99.90;;;;;;5016704;28;20041;-73
2022/03/31 01:47:46;;;;;;;6.18;1.25;;;4.50;99.90;;;;;;5016106;28;20034;-73
2022/03/31 01:50:13;;;;;;;3.38;1.10;;;4.60;99.90;;;;;;4999887;28;20040;-73
2022/03/31 01:52:40;;;;;;;4.97;1.10;;;4.60;99.90;;;;;;5015765;28;20120;-73
2022/03/31 01:55:06;;;;;;;4.00;0.90;;;4.50;99.90;;;;;;5015995;28;20038;-73
2022/03/31 01:57:32;;;;;;;5.00;1.00;;;4.50;99.90;;;;;;5015964;28;20049;-73
2022/03/31 02:00:02;;;;;;;5.45;1.23;;;4.50;99.90;;;;;;5016163;28;20041;-73
2022/03/31 02:02:28;;;;;;;3.72;1.00;;;4.60;99.90;;;;;;5016645;28;20045;-73
2022/03/31 02:04:54;;;;;;;6.18;1.15;;;4.50;99.90;;;;;;5016043;28;20519;-73
2022/03/31 02:07:19;;;;;;;5.38;1.20;;;4.50;99.90;;;;;;4999300;28;20124;-73
2022/03/31 02:09:45;;;;;;;3.13;1.10;;;4.50;99.90;;;;;;5015974;28;20037;-73
2022/03/31 02:12:11;;;;;;;2.70;1.10;;;4.40;99.90;;;;;;5015762;28;20099;-73
2022/03/31 02:14:41;;;;;;;5.70;1.50;;;4.40;99.90;;;;;;5000193;28;20044;-73
2022/03/31 02:17:08;;;;;;;4.50;1.20;;;4.30;99.90;;;;;;5015779;28;20124;-73
2022/03/31 02:19:35;;;;;;;4.63;1.50;;;4.30;99.90;;;;;;5015909;28;20152;-73
2022/03/31 02:22:01;;;;;;;5.80;1.70;;;4.30;99.90;;;;;;4999454;28;20045;-73
2022/03/31 02:24:27;;;;;;;7.45;1.75;;;4.20;99.90;;;;;;5015458;28;20041;-73
2022/03/31 02:26:52;;;;;;;5.70;1.73;;;4.30;99.90;;;;;;4999203;28;20041;-73
2022/03/31 02:29:19;;;;;;;5.65;1.90;;;4.20;99.90;;;;;;5000026;28;20171;-73
2022/03/31 02:31:46;;;;;;;4.93;1.80;;;4.20;99.90;;;;;;4999112;28;20124;-73
2022/03/31 02:34:13;;;;;;;7.47;2.33;;;4.10;99.90;;;;;;5015445;28;20042;-73
2022/03/31 02:36:40;;;;;;;6.57;1.70;;;4.20;99.90;;;;;;4998985;28;20044;-73
2022/03/31 02:39:07;;;;;;;6.95;1.75;;;4.10;99.90;;;;;;5015494;28;20056;-73
2022/03/31 02:41:33;;;;;;;7.13;1.75;;;4.10;99.90;;;;;;5015453;28;20057;-73
2022/03/31 02:43:58;;;;;;;7.00;1.90;;;4.20;99.90;;;;;;5015567;28;20049;-73
2022/03/31 02:46:28;;;;;;;9.38;2.35;;;4.10;99.90;;;;;;5015649;28;20037;-73
2022/03/31 02:48:54;;;;;;;7.85;2.20;;;4.20;99.90;;;;;;5015379;28;20037;-73
2022/03/31 02:51:21;;;;;;;6.93;2.60;;;4.20;99.90;;;;;;5015634;28;20142;-73
2022/03/31 02:56:31;;;;;;;5.28;2.28;;;4.10;99.90;;;;;;5015414;28;20437;-73
2022/03/31 02:58:57;;;;;;;5.88;2.47;;;4.10;99.90;;;;;;5015324;28;20041;-73
2022/03/31 03:01:22;;;;;;;7.57;2.63;;;4.10;99.90;;;;;;5016152;28;20037;-73
2022/03/31 03:03:50;;;;;;;6.93;2.55;;;4.10;99.90;;;;;;5015287;28;20040;-73
2022/03/31 03:06:16;;;;;;;9.20;2.97;;;4.10;99.90;;;;;;5002953;28;20041;-73
2022/03/31 03:08:43;;;;;;;8.90;3.50;;;4.10;99.90;;;;;;5002851;28;20092;-73
2022/03/31 03:11:08;;;;;;;4.53;2.70;;;4.10;99.90;;;;;;5003013;28;20100;-73
2022/03/31 03:13:35;;;;;;;7.97;3.28;;;4.10;99.90;;;;;;5019306;28;20485;-73
2022/03/31 03:16:05;;;;;;;6.45;3.22;;;4.10;99.90;;;;;;5002680;28;20128;-73
2022/03/31 03:18:31;;;;;;;6.05;3.40;;;4.00;99.90;;;;;;5019228;28;20041;-73
2022/03/31 03:20:57;;;;;;;10.40;3.50;;;4.00;99.90;;;;;;5019065;28;20106;-73
2022/03/31 03:23:22;;;;;;;9.23;3.53;;;4.10;99.90;;;;;;5019096;28;20191;-73
2022/03/31 03:25:48;;;;;;;6.80;3.58;;;4.10;99.90;;;;;;5019011;28;20481;-73
2022/03/31 03:28:13;;;;;;;9.55;4.13;;;4.10;99.90;;;;;;5019154;28;20041;-73
2022/03/31 03:30:39;;;;;;;11.55;4.40;;;4.10;99.90;;;;;;5019185;28;20033;-73
2022/03/31 03:33:05;;;;;;;7.82;4.20;;;4.10;99.90;;;;;;5018853;28;20038;-73
2022/03/31 03:35:31;;;;;;;7.07;4.35;;;4.10;99.90;;;;;;5018957;28;20088;-73
2022/03/31 03:37:57;;;;;;;9.35;5.43;;;4.20;99.90;;;;;;5019200;28;20077;-73
2022/03/31 03:40:22;;;;;;;10.77;5.03;;;4.20;99.90;;;;;;5018775;28;20390;-73
2022/03/31 03:42:48;;;;;;;10.13;5.75;;;4.10;99.90;;;;;;5018715;28;20048;-73
2022/03/31 03:45:16;;;;;;;7.65;5.80;;;4.20;99.90;;;;;;5018780;28;20524;-73
2022/03/31 03:47:43;;;;;;;9.65;6.30;;;4.20;99.90;;;;;;5018755;28;20041;-73
2022/03/31 03:50:09;;;;;;;8.40;6.00;;;4.10;99.90;;;;;;5018552;28;20489;-73
2022/03/31 03:52:35;;;;;;;10.25;6.53;;;4.20;99.90;;;;;;5002041;28;20045;-72
2022/03/31 03:55:01;;;;;;;9.15;7.03;;;4.20;99.90;;;;;;5002079;28;20038;-72
2022/03/31 03:57:27;;;;;;;13.77;7.45;;;4.20;99.90;;;;;;5018068;28;20110;-72
2022/03/31 03:59:52;;;;;;;6.47;5.80;;;4.20;99.90;;;;;;5018099;28;20045;-72
2022/03/31 04:02:18;;;;;;;8.35;6.18;;;4.20;99.90;;;;;;5018039;28;20041;-72
2022/03/31 04:04:44;;;;;;;6.22;5.50;;;4.20;99.90;;;;;;5001662;28;20042;-72
2022/03/31 04:07:10;;;;;;;7.63;6.18;;;4.20;99.90;;;;;;5017920;28;20049;-72
2022/03/31 04:09:35;;;;;;;6.38;5.53;;;4.20;99.90;;;;;;5001920;28;20042;-72
2022/03/31 04:12:01;;;;;;;6.55;5.63;;;4.10;99.90;;;;;;5001559;28;20041;-72
2022/03/31 04:14:26;;;;;;;7.72;5.10;;;4.10;99.90;;;;;;5017762;28;20033;-71
2022/03/31 04:16:54;;;;;;;5.03;4.47;;;4.10;99.90;;;;;;5017371;28;20099;-72
2022/03/31 04:19:20;;;;;;;8.15;5.53;;;4.10;99.90;;;;;;5017744;28;20045;-72
2022/03/31 04:21:45;;;;;;;5.63;5.03;;;4.10;99.90;;;;;;5017739;28;20387;-72
2022/03/31 04:24:11;;;;;;;5.97;5.15;;;4.10;99.90;;;;;;5017431;28;20033;-72
2022/03/31 04:26:37;;;;;;;7.50;5.03;;;4.10;99.90;;;;;;5017641;28;20087;-72
2022/03/31 04:29:03;;;;;;;5.63;4.97;;;4.10;99.90;;;;;;5001259;28;20037;-72
2022/03/31 04:31:29;;;;;;;6.53;5.07;;;4.10;99.90;;;;;;5017510;28;20033;-72
2022/03/31 04:33:55;;;;;;;5.97;5.03;;;4.10;99.90;;;;;;5017414;28;20489;-72
2022/03/31 04:36:20;;;;;;;7.07;5.75;;;4.20;99.90;;;;;;5017403;28;20061;-72
2022/03/31 04:38:46;;;;;;;7.20;5.55;;;4.20;99.90;;;;;;5017413;28;20464;-72
2022/03/31 04:41:12;;;;;;;7.60;5.85;;;4.10;99.90;;;;;;5001353;28;20040;-72
2022/03/31 04:43:38;;;;;;;6.45;5.78;;;4.10;99.90;;;;;;5017341;28;20052;-72
2022/03/31 04:46:04;;;;;;;6.13;5.15;;;4.10;99.90;;;;;;5001213;28;20049;-72
2022/03/31 04:48:32;;;;;;;8.25;6.20;;;4.10;99.90;;;;;;5017306;28;20271;-72
2022/03/31 04:50:58;;;;;;;9.23;6.75;;;4.10;99.90;;;;;;5017180;28;20059;-72
2022/03/31 04:53:24;;;;;;;7.90;6.40;;;4.10;99.90;;;;;;5017299;28;20120;-72
2022/03/31 04:55:49;;;;;;;6.18;5.57;;;4.10;99.90;;;;;;5000861;28;20052;-72
2022/03/31 04:58:15;;;;;;;6.78;5.80;;;4.00;99.90;;;;;;5017399;28;20045;-72
2022/03/31 05:00:40;;;;;;;6.38;5.70;;;4.00;99.90;;;;;;5017245;28;20520;-72
2022/03/31 05:03:06;;;;;;;7.25;6.55;;;4.00;99.90;;;;;;5016928;28;20497;-73
2022/03/31 05:05:32;;;;;;;7.82;6.45;;;4.00;99.90;;;;;;5016872;28;20048;-72
2022/03/31 05:07:58;;;;;;;5.97;5.38;;;4.00;99.90;;;;;;5016733;28;20046;-72
2022/03/31 05:10:23;;;;;;;5.75;5.13;;;4.00;99.90;;;;;;5017049;28;20037;-72
2022/03/31 05:12:49;;;;;;;6.55;5.32;;;3.80;99.90;;;;;;5016680;28;20154;-72
2022/03/31 05:15:14;;;;;;;6.25;5.65;;;3.80;99.90;;;;;;5016996;28;20051;-72
2022/03/31 05:17:40;;;;;;;6.80;6.10;;;3.80;99.90;;;;;;5016651;28;20052;-72
2022/03/31 05:20:11;;;;;;;6.93;5.60;;;3.80;99.90;;;;;;5016599;28;20071;-72
2022/03/31 05:22:38;;;;;;;7.35;5.50;;;3.80;99.90;;;;;;5016534;28;20053;-72
2022/03/31 05:25:07;;;;;;;5.78;5.18;;;3.80;99.90;;;;;;5016503;28;20037;-72
2022/03/31 05:27:33;;;;;;;5.55;4.93;;;3.80;99.90;;;;;;4999410;28;20041;-72
2022/03/31 05:29:58;;;;;;;7.70;6.20;;;3.80;99.90;;;;;;5016438;28;20038;-72
2022/03/31 05:32:24;;;;;;;6.53;5.93;;;3.80;99.90;;;;;;5016336;28;20045;-72
2022/03/31 05:34:51;;;;;;;7.68;6.15;;;3.80;99.90;;;;;;5016368;28;20041;-72
2022/03/31 05:37:17;;;;;;;6.25;5.65;;;3.80;99.90;;;;;;5016508;28;20387;-72
2022/03/31 05:39:43;;;;;;;7.38;6.68;;;3.80;99.90;;;;;;5016195;28;20047;-72
2022/03/31 05:42:09;;;;;;;7.60;6.90;;;3.80;99.90;;;;;;5000014;28;20493;-72
2022/03/31 05:44:35;;;;;;;8.65;7.05;;;3.80;99.90;;;;;;5016177;28;20064;-72
2022/03/31 05:47:01;;;;;;;6.75;5.95;;;3.80;99.90;;;;;;4999605;28;20095;-72
2022/03/31 05:49:27;;;;;;;7.50;6.80;;;3.80;99.90;;;;;;5016381;28;20442;-72
2022/03/31 05:51:52;;;;;;;6.95;6.35;;;3.80;99.90;;;;;;5016289;28;20520;-72
2022/03/31 05:54:18;;;;;;;7.00;6.15;;;3.80;99.90;;;;;;4999850;28;20513;-72
2022/03/31 05:56:44;;;;;;;7.25;6.55;;;3.80;99.90;;;;;;5015961;28;20045;-72
2022/03/31 05:59:10;;;;;;;6.05;5.47;;;3.80;99.90;;;;;;5015923;28;20044;-72
2022/03/31 06:01:36;;;;;;;7.35;6.65;;;3.90;99.90;;;;;;4999589;28;20045;-72
2022/03/31 06:04:02;;;;;;;6.82;6.15;;;3.80;99.90;;;;;;5016100;28;20052;-72
2022/03/31 06:06:27;;;;;;;6.20;5.60;;;3.90;99.90;;;;;;5015870;28;20086;-72
2022/03/31 06:08:53;;;;;;;7.05;6.35;;;3.90;99.90;;;;;;5015685;28;20120;-71
2022/03/31 06:11:18;;;;;;;7.32;6.15;;;3.90;99.90;;;;;;4999452;28;20081;-71
2022/03/31 06:13:44;;;;;;;6.35;5.75;;;3.90;99.90;;;;;;5015937;28;20034;-72
2022/03/31 06:16:13;;;;;;;7.40;6.70;;;3.90;99.90;;;;;;4999390;28;20390;-72
2022/03/31 06:18:38;;;;;;;6.65;6.05;;;4.00;99.90;;;;;;5015589;28;20421;-72
2022/03/31 06:21:04;;;;;;;6.43;5.82;;;3.90;99.90;;;;;;5015663;28;20038;-71
2022/03/31 06:23:30;;;;;;;6.35;5.75;;;4.00;99.90;;;;;;4999507;28;20041;-71
2022/03/31 06:25:55;;;;;;;6.45;5.68;;;3.90;99.90;;;;;;5015546;28;20115;-71
2022/03/31 06:28:21;;;;;;;6.43;5.82;;;3.90;99.90;;;;;;5015496;28;20133;-72
2022/03/31 06:30:48;;;;;;;6.07;5.47;;;3.90;99.90;;;;;;5015756;28;20159;-72
2022/03/31 06:33:18;;;;;;;6.85;6.25;;;3.90;99.90;;;;;;5015627;28;20497;-72
2022/03/31 06:35:44;;;;;;;6.32;5.72;;;3.90;99.90;;;;;;4999178;28;20037;-74
2022/03/31 06:38:11;;;;;;;6.88;6.28;;;3.90;99.90;;;;;;5015314;28;20128;-71
2022/03/31 06:40:38;;;;;;;6.20;5.60;;;3.90;99.90;;;;;;5015403;28;20505;-72
2022/03/31 06:43:05;;;;;;;5.95;5.22;;;3.90;99.90;;;;;;5015922;28;20037;-71
2022/03/31 06:45:31;;;;;;;6.35;5.75;;;4.00;99.90;;;;;;5015593;28;20490;-72
2022/03/31 06:47:58;;;;;;;6.72;5.90;;;4.00;99.90;;;;;;5015263;28;20060;-71
2022/03/31 06:50:24;;;;;;;6.05;5.40;;;4.00;99.90;;;;;;5015325;28;20045;-72
2022/03/31 06:52:50;;;;;;;6.20;5.60;;;4.00;99.90;;;;;;4998945;28;20173;-72
2022/03/31 06:55:16;;;;;;;5.78;5.22;;;4.00;99.90;;;;;;5015466;28;20033;-72
2022/03/31 06:57:42;;;;;;;5.53;5.03;;;4.10;99.90;;;;;;5015265;28;20132;-72
2022/03/31 07:00:08;;;;;;;6.25;5.65;;;4.10;99.90;;;;;;4998945;28;20476;-72
2022/03/31 07:02:34;;;;;;;5.50;5.00;;;4.10;99.90;;;;;;5015054;28;20390;-72
2022/03/31 07:05:00;;;;;;;7.15;6.25;;;4.10;99.90;;;;;;5015650;28;20053;-71
2022/03/31 07:07:25;;;;;;;6.00;5.22;;;4.10;99.90;;;;;;5015440;28;20041;-72
2022/03/31 07:09:51;;;;;;;5.47;4.88;;;4.10;99.90;;;;;;5015101;28;20068;-71
2022/03/31 07:12:17;;;;;;;5.78;5.28;;;4.10;99.90;;;;;;4998954;28;20045;-72
2022/03/31 07:14:44;;;;;;;5.45;4.95;;;4.10;99.90;;;;;;5015057;28;20045;-72
2022/03/31 07:17:10;;;;;;;5.38;4.88;;;4.10;99.90;;;;;;5015092;28;20042;-72
2022/03/31 07:19:36;;;;;;;5.93;5.32;;;4.10;99.90;;;;;;5014993;28;20494;-72
2022/03/31 07:22:02;;;;;;;5.40;4.90;;;4.10;99.90;;;;;;4998657;28;20052;-71
2022/03/31 07:24:28;;;;;;;5.82;5.05;;;4.10;99.90;;;;;;5014823;28;20033;-72
2022/03/31 07:26:54;;;;;;;6.18;5.57;;;4.10;99.90;;;;;;5015384;28;20088;-72
2022/03/31 07:29:19;;;;;;;6.20;5.63;;;4.10;99.90;;;;;;5015445;28;20429;-72
2022/03/31 07:31:45;;;;;;;6.47;5.88;;;4.10;99.90;;;;;;5015293;28;20478;-72
2022/03/31 07:34:11;;;;;;;7.53;6.28;;;4.10;99.90;;;;;;5014952;28;20041;-72
2022/03/31 07:36:37;;;;;;;7.05;6.30;;;4.10;99.90;;;;;;5014923;28;20116;-72
2022/03/31 07:39:02;;;;;;;7.13;6.43;;;4.10;99.90;;;;;;5015415;28;20042;-72
2022/03/31 07:41:28;;;;;;;7.93;7.13;;;4.20;99.90;;;;;;4998555;28;20037;-72
2022/03/31 07:43:54;;;;;;;7.97;7.22;;;4.20;99.90;;;;;;5014810;28;20145;-72
2022/03/31 07:46:19;;;;;;;8.05;7.28;;;4.20;99.90;;;;;;5014789;28;20049;-72
2022/03/31 07:48:45;;;;;;;8.25;7.45;;;4.20;99.90;;;;;;5014776;28;20053;-72
2022/03/31 07:51:11;;;;;;;8.20;7.40;;;4.20;99.90;;;;;;5016913;28;20042;-72
2022/03/31 07:53:37;;;;;;;8.38;7.57;;;4.20;99.90;;;;;;5002375;28;20079;-72
2022/03/31 07:56:04;;;;;;;8.48;7.68;;;4.20;99.90;;;;;;5018498;28;20551;-72
2022/03/31 07:58:29;;;;;;;7.97;7.18;;;4.20;99.90;;;;;;5018468;28;20514;-72
2022/03/31 08:00:56;;;;;;;8.23;7.43;;;4.20;99.90;;;;;;5018074;28;20588;-72
2022/03/31 08:03:22;;;;;;;7.57;6.88;;;4.20;99.90;;;;;;5017987;28;20048;-72
2022/03/31 08:05:48;;;;;;;8.50;7.68;;;4.20;99.90;;;;;;5018052;28;20052;-72
2022/03/31 08:08:14;;;;;;;8.65;7.78;;;4.20;99.90;;;;;;5018038;28;20042;-72
2022/03/31 08:10:40;;;;;;;8.02;7.30;;;4.10;99.90;;;;;;5001685;28;20452;-72
2022/03/31 08:13:06;;;;;;;7.90;7.20;;;4.20;99.90;;;;;;5018322;28;20044;-72
2022/03/31 08:15:31;;;;;;;6.82;6.22;;;4.20;99.90;;;;;;5001807;28;20126;-72
2022/03/31 08:17:58;;;;;;;8.68;7.40;;;4.20;99.90;;;;;;5017871;28;20072;-71
2022/03/31 08:20:25;;;;;;;7.03;6.35;;;4.20;99.90;;;;;;5018013;28;20041;-71
2022/03/31 08:22:51;;;;;;;6.53;5.93;;;4.10;99.90;;;;;;5017543;28;20163;-72
2022/03/31 08:25:17;;;;;;;6.20;5.60;;;4.10;99.90;;;;;;5017721;28;20133;-72
2022/03/31 08:27:44;;;;;;;6.88;6.18;;;4.00;99.90;;;;;;5017711;28;20163;-71
2022/03/31 08:30:19;;;;;;;6.78;6.18;;;4.00;99.90;;;;;;5001347;28;20041;-71
2022/03/31 08:32:46;;;;;;;6.75;6.15;;;4.10;99.90;;;;;;5017516;28;20084;-71
2022/03/31 08:35:14;;;;;;;7.40;6.70;;;4.10;99.90;;;;;;5017382;28;20043;-71
2022/03/31 08:37:40;;;;;;;7.93;7.20;;;4.10;99.90;;;;;;5017687;28;20041;-72
2022/03/31 08:40:08;;;;;;;6.65;5.95;;;4.10;99.90;;;;;;5017650;28;20517;-72
2022/03/31 08:42:34;;;;;;;6.10;5.50;;;4.10;99.90;;;;;;5017279;28;20044;-72
2022/03/31 08:45:01;;;;;;;6.38;5.78;;;4.10;99.90;;;;;;5017291;28;20045;-72
2022/03/31 08:47:27;;;;;;;6.35;5.45;;;4.10;99.90;;;;;;5017367;28;20045;-72
2022/03/31 08:49:56;;;;;;;5.93;5.38;;;4.10;99.90;;;;;;5017198;28;20520;-73
2022/03/31 08:52:23;;;;;;;5.93;5.43;;;4.10;99.90;;;;;;5000737;28;20033;-73
2022/03/31 08:54:49;;;;;;;6.22;5.65;;;4.10;99.90;;;;;;5017047;28;20432;-73
2022/03/31 08:57:16;;;;;;;5.18;4.68;;;4.10;99.90;;;;;;5017019;28;20037;-73
2022/03/31 08:59:42;;;;;;;4.95;4.45;;;4.10;99.90;;;;;;5016997;28;20080;-73
2022/03/31 09:02:08;;;;;;;4.53;4.13;;;4.10;99.90;;;;;;5016059;28;20085;-73
2022/03/31 09:04:34;;;;;;;4.13;3.72;;;4.00;99.90;;;;;;5017125;28;20033;-73
2022/03/31 09:07:05;;;;;;;4.60;4.05;;;4.00;99.90;;;;;;5017921;28;20067;-73
2022/03/31 09:09:31;;;;;;;4.70;4.22;;;4.00;99.90;;;;;;5016882;28;20038;-73
2022/03/31 09:11:57;;;;;;;4.45;4.00;;;4.00;99.90;;;;;;5016961;28;20029;-73
2022/03/31 09:14:31;;;;;;;3.30;3.00;;;3.90;99.90;;;;;;5001086;28;20474;-73
2022/03/31 09:17:09;;;;;;;4.57;3.30;;;3.90;99.90;;;;;;5016706;28;20043;-73
2022/03/31 09:19:35;;;;;;;3.47;3.00;;;3.80;99.90;;;;;;5000431;28;20041;-73
2022/03/31 09:22:01;;;;;;;3.08;2.75;;;3.80;99.90;;;;;;5016742;28;20085;-72
2022/03/31 09:24:28;;;;;;;3.85;3.33;;;3.80;99.90;;;;;;5016378;28;20515;-72
2022/03/31 09:26:56;;;;;;;4.00;3.00;;;3.70;99.90;;;;;;5000424;28;20034;-72
2022/03/31 09:29:24;;;;;;;4.85;3.00;;;3.70;99.90;;;;;;5000049;28;20512;-72
2022/03/31 09:31:54;;;;;;;3.47;3.17;;;3.70;99.90;;;;;;5016710;28;20041;-72
2022/03/31 09:34:20;;;;;;;4.93;2.92;;;3.60;99.90;;;;;;4999985;28;20037;-73
2022/03/31 09:36:51;;;;;;;3.15;2.83;;;3.60;99.90;;;;;;5016521;28;20033;-73
2022/03/31 09:39:19;;;;;;;3.25;2.85;;;3.60;99.90;;;;;;5016526;28;20064;-73
2022/03/31 09:41:53;;;;;;;3.80;3.03;;;3.60;99.90;;;;;;4999901;28;20041;-72
2022/03/31 09:44:22;;;;;;;;;;;3.50;99.90;;;;;;5017384;28;20473;-72
2022/03/31 09:46:48;;;;;;;3.75;3.35;;;3.40;99.90;;;;;;5016215;28;19917;-72
2022/03/31 09:49:21;;;;;;;4.82;3.10;;;3.30;99.90;;;;;;4999663;28;20045;-72
2022/03/31 09:51:49;;;;;;;3.58;3.13;;;3.30;99.90;;;;;;5016361;28;20041;-72
2022/03/31 09:54:17;;;;;;;4.03;3.35;;;3.30;99.90;;;;;;5015998;28;20124;-72
2022/03/31 09:56:43;;;;;;;3.65;3.28;;;3.30;99.90;;;;;;5015970;28;20040;-72
2022/03/31 09:59:11;;;;;;;4.03;3.38;;;3.30;99.90;;;;;;5015908;28;20096;-72
2022/03/31 10:01:39;;;;;;;3.70;3.15;;;3.30;99.90;;;;;;5016149;28;20041;-73
2022/03/31 10:04:09;;;;;;;4.05;3.65;;;3.30;99.90;;;;;;4999813;28;20045;-74
2022/03/31 10:06:42;;;;;;;4.22;3.80;;;3.30;99.90;;;;;;4999510;28;20046;-73
2022/03/31 10:09:10;;;;;;;4.80;4.35;;;3.20;99.90;;;;;;5015812;28;20037;-73
2022/03/31 10:11:45;;;;;;;4.40;4.00;;;3.20;99.90;;;;;;4999644;28;20565;-73
2022/03/31 10:14:40;;;;;;;4.68;4.18;;;3.30;99.90;;;;;;4999169;28;20149;-74
2022/03/31 10:17:11;;;;;;;5.25;4.75;;;3.40;99.90;;;;;;5016089;28;20116;-73
2022/03/31 10:19:39;;;;;;;5.10;4.57;;;3.30;99.90;;;;;;5015801;28;20033;-73
2022/03/31 10:22:09;;;;;;;5.47;4.90;;;3.30;99.90;;;;;;5015949;28;20565;-73
2022/03/31 10:24:41;;;;;;;5.72;5.22;;;3.30;99.90;;;;;;5015714;28;20080;-73
2022/03/31 10:27:09;;;;;;;5.20;4.70;;;3.30;99.90;;;;;;5016740;28;20079;-73
2022/03/31 10:29:40;;;;;;;5.10;4.60;;;3.30;99.90;;;;;;5015927;28;20493;-71
2022/03/31 10:32:35;;;;;;;6.47;4.85;;;3.30;99.90;;;;;;5015781;28;20068;-70
2022/03/31 10:35:01;;;;;;;4.90;4.40;;;3.30;99.90;;;;;;4986589;28;20532;-70
2022/03/31 10:37:31;;;;;;;5.82;5.22;;;3.30;99.90;;;;;;4999030;28;20045;-70
2022/03/31 10:39:57;;;;;;;5.55;5.05;;;3.30;99.90;;;;;;5015382;28;20457;-70
2022/03/31 10:42:23;;;;;;;5.22;4.72;;;3.30;99.90;;;;;;5015558;28;20091;-70
2022/03/31 10:45:01;;;;;;;4.70;4.28;;;3.30;99.90;;;;;;5015348;28;20041;-70
2022/03/31 10:47:32;;;;;;;4.97;4.47;;;3.30;99.90;;;;;;5015569;28;20076;-70
2022/03/31 10:49:57;;;;;;;4.88;4.38;;;3.30;99.90;;;;;;5015617;28;20048;-70
2022/03/31 10:52:23;;;;;;;4.75;4.32;;;3.30;99.90;;;;;;5015527;28;20038;-70
2022/03/31 10:54:53;;;;;;;4.53;4.13;;;3.20;99.90;;;;;;5015576;28;20461;-70
2022/03/31 10:57:19;;;;;;;5.10;4.32;;;3.20;99.90;;;;;;5015806;28;20460;-70
2022/03/31 10:59:47;;;;;;;4.75;4.25;;;3.20;99.90;;;;;;5015437;28;20034;-70
2022/03/31 11:02:19;;;;;;;5.00;4.30;;;3.10;99.90;;;;;;4998670;28;20410;-70
2022/03/31 11:04:54;;;;;;;4.80;4.30;;;3.10;99.90;;;;;;5015406;28;20052;-70
2022/03/31 11:07:22;;;;;;;4.75;4.25;;;3.00;99.90;;;;;;5015082;28;20175;-73
2022/03/31 11:09:59;;;;;;;4.57;4.10;;;3.00;99.90;;;;;;4998783;28;20033;-70
2022/03/31 11:12:27;;;;;;;5.50;4.97;;;2.90;99.90;;;;;;5015554;28;20089;-70
2022/03/31 11:14:58;;;;;;;4.82;4.35;;;3.00;99.90;;;;;;5015105;28;20199;-71
2022/03/31 11:17:24;;;;;;;5.10;4.60;;;2.90;99.90;;;;;;4998779;28;20046;-70
2022/03/31 11:19:53;;;;;;;5.05;4.55;;;2.90;99.90;;;;;;4999130;28;20506;-71
2022/03/31 11:22:28;;;;;;;6.07;5.47;;;2.90;99.90;;;;;;5014990;28;20044;-72
2022/03/31 11:25:15;;;;;;;5.78;5.10;;;2.80;99.90;;;;;;4999348;28;20104;-71
2022/03/31 11:27:43;;;;;;;6.25;5.65;;;2.70;99.90;;;;;;5019284;28;20061;-71
2022/03/31 11:30:18;;;;;;;6.50;5.82;;;2.70;99.90;;;;;;5019257;28;20037;-71
2022/03/31 11:32:44;;;;;;;7.60;6.90;;;2.70;99.90;;;;;;5019438;28;20497;-71
2022/03/31 11:35:16;;;;;;;7.03;6.28;;;2.70;99.90;;;;;;5002974;28;20069;-71
2022/03/31 11:37:50;;;;;;;6.30;5.70;;;2.60;99.90;;;;;;5019096;28;20124;-71
2022/03/31 11:40:23;;;;;;;7.78;7.00;;;2.60;99.90;;;;;;5019077;28;20041;-71
2022/03/31 11:42:51;;;;;;;7.07;6.38;;;2.60;99.90;;;;;;5018658;28;20501;-71
2022/03/31 11:45:24;;;;;;;7.22;6.53;;;2.50;99.90;;;;;;5018595;28;20049;-71
2022/03/31 11:48:11;;;;;;;6.80;6.10;;;2.50;99.90;;;;;;5018330;28;20112;-72
2022/03/31 11:50:39;;;;;;;6.25;5.63;;;2.50;99.90;;;;;;5018346;28;20038;-72
2022/03/31 11:53:24;;;;;;;6.53;5.93;;;2.50;99.90;;;;;;5018157;28;20045;-72
2022/03/31 11:56:06;;;;;;;6.07;5.47;;;2.40;99.90;;;;;;5001948;28;20033;-72
2022/03/31 11:58:51;;;;;;;5.85;5.25;;;2.40;99.90;;;;;;5019350;28;20037;-72
2022/03/31 12:01:20;;;;;;;6.15;5.55;;;2.40;99.90;;;;;;5002033;28;20490;-72
2022/03/31 12:03:46;;;;;;;6.82;6.13;;;2.30;99.90;;;;;;5017950;28;20413;-72
2022/03/31 12:06:16;;;;;;;6.22;5.63;;;2.30;99.90;;;;;;5018353;28;20068;-72
2022/03/31 12:08:42;;;;;;;6.47;5.82;;;2.30;99.90;;;;;;5017940;28;20394;-72
2022/03/31 12:11:09;;;;;;;6.18;5.57;;;2.40;99.90;;;;;;5001559;28;20033;-72
2022/03/31 12:13:47;;;;;;;5.72;5.18;;;2.40;99.90;;;;;;5018092;28;20033;-72
2022/03/31 12:16:13;;;;;;;5.63;5.13;;;2.40;99.90;;;;;;5017888;28;20585;-72
2022/03/31 12:18:40;;;;;;;6.03;5.43;;;2.50;99.90;;;;;;5018094;28;20045;-72
2022/03/31 12:21:07;;;;;;;5.40;4.90;;;2.40;99.90;;;;;;5017975;28;20165;-72
2022/03/31 12:23:41;;;;;;;5.10;4.60;;;2.40;99.90;;;;;;5001151;28;20555;-74
2022/03/31 12:26:16;;;;;;;5.85;5.18;;;2.40;99.90;;;;;;5017941;28;20081;-73
2022/03/31 12:28:46;;;;;;;5.80;5.30;;;2.40;99.90;;;;;;5017526;28;20481;-73
2022/03/31 12:31:22;;;;;;;5.32;4.82;;;2.40;99.90;;;;;;5017527;28;20037;-73
2022/03/31 12:33:51;;;;;;;5.63;5.13;;;2.50;99.90;;;;;;5017732;28;20048;-73
2022/03/31 12:36:22;;;;;;;6.03;5.43;;;2.50;99.90;;;;;;5001186;28;20508;-73
2022/03/31 12:38:51;;;;;;;6.47;5.88;;;2.50;99.90;;;;;;5017479;28;20476;-73
2022/03/31 12:41:38;;;;;;;5.47;4.97;;;2.50;99.90;;;;;;5017444;28;20052;-73
2022/03/31 12:44:16;;;;;;;6.95;5.55;;;2.50;99.90;;;;;;5017253;28;20049;-73
2022/03/31 12:46:52;;;;;;;8.98;6.88;;;2.40;99.90;;;;;;5001227;28;20548;-72
2022/03/31 12:49:25;;;;;;;7.25;6.55;;;2.40;99.90;;;;;;5017866;28;20092;-75
2022/03/31 12:52:00;;;;;;;6.75;6.05;;;2.50;99.90;;;;;;5019112;28;20033;-75
2022/03/31 12:54:34;;;;;;;7.22;6.53;;;2.50;99.90;;;;;;5017707;28;20044;-74
2022/03/31 12:57:17;;;;;;;7.82;7.03;;;2.50;99.90;;;;;;5018194;28;20037;-74
2022/03/31 12:59:44;;;;;;;7.78;7.00;;;2.60;99.90;;;;;;5017510;28;20131;-74
2022/03/31 13:02:12;;;;;;;8.40;7.60;;;2.50;99.90;;;;;;5017192;28;20037;-74
2022/03/31 13:04:47;;;;;;;8.55;7.70;;;2.50;99.90;;;;;;5017361;28;20092;-74
2022/03/31 13:07:18;;;;;;;8.93;8.13;;;2.60;99.90;;;;;;5017329;28;20056;-74
2022/03/31 13:09:45;;;;;;;9.48;8.25;;;2.50;99.90;;;;;;5000727;28;20489;-74
2022/03/31 13:12:11;;;;;;;8.93;8.02;;;2.60;99.90;;;;;;5017225;28;20077;-73
2022/03/31 13:14:42;;;;;;;9.35;8.35;;;2.60;99.90;;;;;;5016962;28;20080;-74
2022/03/31 13:17:09;;;;;;;11.20;10.02;;;2.50;99.90;;;;;;5016874;28;20413;-74
2022/03/31 13:19:35;;;;;;;11.23;10.13;;;2.50;99.90;;;;;;5000289;28;20033;-74